map of FNL home
FNL - Airport
Location
City:  Fort Collins/Loveland, Colorado, United States
Name:Northern Colorado Regional
ICAO:KFNL
IATA:FNL
FAA LID:FNL

Details
Type:Airport (Part 139 Class I)
Use:Public/Civil
Latitude:4027'07"N (40.451827)
Longitude:10500'41"W (-105.011335)
Datum:WGS 1984
Elevation:5015 ft (1529 m)
Variation:8.21E (WMM2015v2 magnetic declination)
-0.09 annual change
Runways:2
Longest:8500 × 100 ft (2591 × 30.5 m), paved

Time
Time Zone:UTC-7 (DST-6)
Local Time:

Weather
METAR:KFNL 041356Z AUTO 13012KT 10SM CLR 04/M08 A2971 RMK AO2 SLP050 T00391078

Related Locations
Nearby:
Farthest:RRG: 10850 mi / 17461 km
Plaine Corail [Sir Gatan Duval Airport (Plaine Corail Airport)], Rodrigues Island, MU

Find:

   beyond  
but within

Other Information
Maps:
NOTAMs:
Links:
Sources:

  
  • flag of United States
  • flag of Colorado
  

Airport Diagram

Airport diagram for FNL

Airport diagram PDF from FAA

Sectional Chart

Flight Planning
at skyvector.com

Satellite Image

Google Maps Satellite view

 

Copyright © 2004-2019 Karl L. Swartz. All rights reserved.
The Great Circle Mapper name and logo are trademarks of the Great Circle Mapper.
All other trademarks mentioned herein belong to their respective owners.
Please see credits for attibutions and further copyright information.

  Follow gcmap on Facebook Follow gcmap on Twitter GCmap on LinkedIn

hCard Microformat

Geo Microformat